createdAt,value
2019-02-24T00:00:49.617Z,97088.11
2019-02-24T00:03:18.961Z,97090.37
2019-02-24T00:05:48.332Z,97088.11
2019-02-24T00:08:17.670Z,97089.40
2019-02-24T00:10:47.012Z,97102.18
2019-02-24T00:13:16.377Z,97095.27
2019-02-24T00:15:45.830Z,97098.16
2019-02-24T00:18:15.226Z,97097.34
2019-02-24T00:20:44.582Z,97098.27
2019-02-24T00:23:13.952Z,97098.60
2019-02-24T00:25:43.340Z,97100.05
2019-02-24T00:28:12.677Z,97104.62
2019-02-24T00:30:42.065Z,97103.98
2019-02-24T00:33:11.451Z,97100.56
2019-02-24T00:35:40.903Z,97104.93
2019-02-24T00:38:10.204Z,97104.78
2019-02-24T00:40:39.571Z,97102.40
2019-02-24T00:43:09.053Z,97104.36
2019-02-24T00:45:38.515Z,97099.98
2019-02-24T00:48:07.891Z,97095.66
2019-02-24T00:50:37.311Z,97100.50
2019-02-24T00:53:06.728Z,97097.33
2019-02-24T00:55:36.053Z,97100.18
2019-02-24T00:58:05.402Z,97098.42
2019-02-24T01:00:34.770Z,97105.00
2019-02-24T01:03:04.232Z,97100.05
2019-02-24T01:05:33.591Z,97096.94
2019-02-24T01:08:02.952Z,97105.92
2019-02-24T01:10:32.298Z,97095.60
2019-02-24T01:13:01.796Z,97097.55
2019-02-24T01:15:31.236Z,97094.59
2019-02-24T01:18:00.567Z,97093.25
2019-02-24T01:20:29.913Z,97092.84
2019-02-24T01:22:59.258Z,97106.95
2019-02-24T01:25:28.628Z,97094.67
2019-02-24T01:27:58.020Z,97095.05
2019-02-24T01:30:27.379Z,97092.55
2019-02-24T01:32:56.717Z,97095.61
2019-02-24T01:35:26.113Z,97089.47
2019-02-24T01:37:55.468Z,97091.91
2019-02-24T01:40:24.794Z,97093.06
2019-02-24T01:42:54.135Z,97092.39
2019-02-24T01:45:23.480Z,97094.72
2019-02-24T01:47:52.821Z,97094.97
2019-02-24T01:50:22.191Z,97095.45
2019-02-24T01:52:51.539Z,97093.14
2019-02-24T01:55:20.896Z,97084.79
2019-02-24T01:57:50.262Z,97087.63
2019-02-24T02:00:19.637Z,97088.38
2019-02-24T02:02:49.113Z,97086.09
2019-02-24T02:05:18.482Z,97081.10
2019-02-24T02:07:47.850Z,97077.71
2019-02-24T02:10:17.188Z,97079.16
2019-02-24T02:12:46.540Z,97074.80
2019-02-24T02:15:15.875Z,97069.55
2019-02-24T02:17:45.249Z,97069.41
2019-02-24T02:20:14.596Z,97060.83
2019-02-24T02:22:43.958Z,97063.72
2019-02-24T02:25:13.307Z,97063.84
2019-02-24T02:27:42.625Z,97050.64
2019-02-24T02:30:12.048Z,97051.26
2019-02-24T02:32:41.407Z,97053.83
2019-02-24T02:35:10.717Z,97056.02
2019-02-24T02:37:40.048Z,97055.48
2019-02-24T02:40:09.730Z,97052.87
2019-02-24T02:42:39.048Z,97052.81
2019-02-24T02:45:08.462Z,97051.50
2019-02-24T02:47:37.836Z,97049.51
2019-02-24T02:50:07.340Z,97047.80
2019-02-24T02:52:37.470Z,97052.08
2019-02-24T02:55:06.905Z,97055.03
2019-02-24T02:57:36.243Z,97058.35
2019-02-24T03:00:10.027Z,97060.57
2019-02-24T03:02:39.391Z,97062.47
2019-02-24T03:05:08.885Z,97059.02
2019-02-24T03:07:42.157Z,97057.52
2019-02-24T03:10:11.496Z,97057.94
2019-02-24T03:12:40.830Z,97056.30
2019-02-24T03:15:10.301Z,97054.69
2019-02-24T03:17:39.697Z,97060.58
2019-02-24T03:20:09.111Z,97061.38
2019-02-24T03:22:38.441Z,97061.54
2019-02-24T03:25:07.881Z,97060.07
2019-02-24T03:27:37.185Z,97060.86
2019-02-24T03:30:06.671Z,97061.82
2019-02-24T03:32:36.022Z,97063.48
2019-02-24T03:35:05.368Z,97064.34
2019-02-24T03:37:34.741Z,97063.13
2019-02-24T03:40:04.161Z,97062.50
2019-02-24T03:42:33.587Z,97059.95
2019-02-24T03:45:02.968Z,97059.85
2019-02-24T03:47:32.339Z,97058.44
2019-02-24T03:50:01.691Z,97058.68
2019-02-24T03:52:31.020Z,97054.08
2019-02-24T03:55:00.421Z,97052.61
2019-02-24T03:57:29.765Z,97049.84
2019-02-24T03:59:59.093Z,97046.75
2019-02-24T04:02:28.396Z,97053.73
2019-02-24T04:04:57.718Z,97048.26
2019-02-24T04:07:27.057Z,97048.10
2019-02-24T04:09:56.436Z,97041.08
2019-02-24T04:12:25.933Z,97045.11
2019-02-24T04:14:55.286Z,97047.61
2019-02-24T04:17:24.640Z,97048.73
2019-02-24T04:19:53.951Z,97048.88
2019-02-24T04:22:23.253Z,97046.02
2019-02-24T04:24:52.562Z,97042.39
2019-02-24T04:27:21.950Z,97044.17
2019-02-24T04:29:51.330Z,97041.99
2019-02-24T04:32:20.702Z,97040.69
2019-02-24T04:34:50.055Z,97038.79
2019-02-24T04:37:19.442Z,97046.46
2019-02-24T04:39:48.783Z,97036.84
2019-02-24T04:42:18.139Z,97039.42
2019-02-24T04:44:47.520Z,97048.25
2019-02-24T04:47:16.887Z,97035.94
2019-02-24T04:49:46.210Z,97036.75
2019-02-24T04:52:15.539Z,97031.38
2019-02-24T04:54:44.949Z,97029.13
2019-02-24T04:57:14.287Z,97029.34
2019-02-24T04:59:43.672Z,97036.22
2019-02-24T05:02:13.038Z,97032.02
2019-02-24T05:04:42.351Z,97034.73
2019-02-24T05:07:11.683Z,97036.47
2019-02-24T05:09:41.003Z,97040.73
2019-02-24T05:12:10.354Z,97058.13
2019-02-24T05:14:39.723Z,97059.27
2019-02-24T05:17:09.105Z,97060.36
2019-02-24T05:19:38.436Z,97077.66
2019-02-24T05:22:07.793Z,97082.94
2019-02-24T05:24:37.095Z,97083.27
2019-02-24T05:27:06.451Z,97084.63
2019-02-24T05:29:44.706Z,97091.78
2019-02-24T05:32:06.976Z,97096.16
2019-02-24T05:34:36.351Z,97104.30
2019-02-24T05:37:05.693Z,97098.26
2019-02-24T05:39:35.031Z,97089.95
2019-02-24T05:42:04.349Z,97108.89
2019-02-24T05:44:33.737Z,97093.38
2019-02-24T05:47:03.328Z,97086.69
2019-02-24T05:49:32.677Z,97091.78
2019-02-24T05:52:02.029Z,97097.49
2019-02-24T05:54:32.529Z,97101.39
2019-02-24T05:57:01.960Z,97097.78
2019-02-24T05:59:31.593Z,97095.56
2019-02-24T06:02:01.068Z,97099.38
2019-02-24T06:04:30.463Z,97099.05
2019-02-24T06:06:59.904Z,97101.84
2019-02-24T06:09:29.279Z,97113.84
2019-02-24T06:11:58.608Z,97108.30
2019-02-24T06:14:28.500Z,97106.20
2019-02-24T06:16:57.826Z,97098.88
2019-02-24T06:19:27.502Z,97103.13
2019-02-24T06:21:56.888Z,97110.60
2019-02-24T06:24:26.242Z,97105.09
2019-02-24T06:26:55.618Z,97104.20
2019-02-24T06:29:24.937Z,97110.39
2019-02-24T06:31:54.473Z,97110.41
2019-02-24T06:34:25.257Z,97110.36
2019-02-24T06:36:54.645Z,97109.86
2019-02-24T06:39:23.972Z,97115.95
2019-02-24T06:41:53.399Z,97114.08
2019-02-24T06:44:22.753Z,97117.14
2019-02-24T06:46:52.155Z,97117.14
2019-02-24T06:49:21.667Z,97109.67
2019-02-24T06:51:51.178Z,97112.16
2019-02-24T06:54:20.603Z,97112.16
2019-02-24T06:56:49.963Z,97118.70
2019-02-24T06:59:19.268Z,97118.55
2019-02-24T07:01:48.732Z,97123.71
2019-02-24T07:04:18.285Z,97125.55
2019-02-24T07:06:47.636Z,97123.30
2019-02-24T07:09:16.984Z,97135.99
2019-02-24T07:11:46.306Z,97131.88
2019-02-24T07:14:15.654Z,97130.05
2019-02-24T07:16:45.229Z,97138.23
2019-02-24T07:19:14.617Z,97130.78
2019-02-24T07:21:44.010Z,97133.80
2019-02-24T07:24:13.363Z,97133.62
2019-02-24T07:26:42.787Z,97132.73
2019-02-24T07:29:12.106Z,97128.80
2019-02-24T07:31:41.441Z,97134.58
2019-02-24T07:34:10.809Z,97134.30
2019-02-24T07:36:40.119Z,97133.46
2019-02-24T07:39:09.479Z,97128.80
2019-02-24T07:41:38.811Z,97131.24
2019-02-24T07:44:08.166Z,97136.44
2019-02-24T07:46:37.543Z,97128.67
2019-02-24T07:49:06.961Z,97129.78
2019-02-24T07:51:36.324Z,97126.61
2019-02-24T07:54:05.723Z,97125.97
2019-02-24T07:56:35.023Z,97129.63
2019-02-24T07:59:04.395Z,97132.05
2019-02-24T08:01:33.851Z,97131.75
2019-02-24T08:04:03.199Z,97127.54
2019-02-24T08:06:32.513Z,97127.58
2019-02-24T08:09:01.917Z,97128.80
2019-02-24T08:11:31.286Z,97127.95
2019-02-24T08:14:00.638Z,97129.14
2019-02-24T08:16:29.992Z,97117.19
2019-02-24T08:18:59.363Z,97103.77
2019-02-24T08:21:28.723Z,97103.77
2019-02-24T08:23:58.113Z,97111.35
2019-02-24T08:26:27.492Z,97125.31
2019-02-24T08:28:56.844Z,97117.56
2019-02-24T08:31:26.214Z,97114.21
2019-02-24T08:33:55.560Z,97116.27
2019-02-24T08:36:24.952Z,97128.58
2019-02-24T08:38:54.280Z,97125.91
2019-02-24T08:41:23.616Z,97120.05
2019-02-24T08:43:53.005Z,97116.26
2019-02-24T08:46:22.357Z,97100.70
2019-02-24T08:48:51.765Z,97117.16
2019-02-24T08:51:21.098Z,97100.75
2019-02-24T08:53:50.491Z,97108.48
2019-02-24T08:56:19.868Z,97096.50
2019-02-24T08:58:49.220Z,97095.92
2019-02-24T09:01:18.707Z,97094.45
2019-02-24T09:03:48.204Z,97096.64
2019-02-24T09:06:17.507Z,97099.56
2019-02-24T09:08:46.886Z,97093.50
2019-02-24T09:11:16.225Z,97092.97
2019-02-24T09:13:45.532Z,97094.89
2019-02-24T09:16:14.881Z,97078.73
2019-02-24T09:18:44.225Z,97080.26
2019-02-24T09:21:13.564Z,97082.83
2019-02-24T09:23:42.896Z,97088.92
2019-02-24T09:26:12.251Z,97083.23
2019-02-24T09:28:41.573Z,97080.81
2019-02-24T09:31:10.988Z,97069.85
2019-02-24T09:33:40.318Z,97073.48
2019-02-24T09:36:09.744Z,97082.64
2019-02-24T09:38:39.127Z,97088.93
2019-02-24T09:41:08.507Z,97073.61
2019-02-24T09:43:37.971Z,97079.80
2019-02-24T09:46:07.320Z,97073.73
2019-02-24T09:48:36.892Z,97075.88
2019-02-24T09:51:06.257Z,97072.17
2019-02-24T09:53:35.648Z,97063.41
2019-02-24T09:56:05.324Z,97069.91
2019-02-24T09:58:34.696Z,97065.93
2019-02-24T10:01:10.600Z,97056.20
2019-02-24T10:03:35.211Z,97047.69
2019-02-24T10:06:04.599Z,97046.45
2019-02-24T10:08:33.956Z,97047.11
2019-02-24T10:11:03.324Z,97043.91
2019-02-24T10:13:32.664Z,97035.84
2019-02-24T10:16:02.115Z,97034.89
2019-02-24T10:18:31.480Z,97032.45
2019-02-24T10:21:01.025Z,97024.34
2019-02-24T10:23:30.414Z,97023.08
2019-02-24T10:25:59.847Z,97009.25
2019-02-24T10:28:29.189Z,97009.00
2019-02-24T10:30:58.703Z,97014.61
2019-02-24T10:33:28.110Z,97007.30
2019-02-24T10:35:57.463Z,97012.02
2019-02-24T10:38:26.866Z,96995.63
2019-02-24T10:40:56.262Z,96992.14
2019-02-24T10:43:25.690Z,96990.34
2019-02-24T10:45:55.001Z,96986.09
2019-02-24T10:48:24.356Z,96998.97
2019-02-24T10:50:53.726Z,96992.30
2019-02-24T10:53:23.051Z,96985.13
2019-02-24T10:55:52.490Z,96998.74
2019-02-24T10:58:21.826Z,96990.69
2019-02-24T11:00:51.161Z,96986.47
2019-02-24T11:03:20.811Z,96984.27
2019-02-24T11:05:50.168Z,96985.88
2019-02-24T11:08:19.614Z,96987.80
2019-02-24T11:10:48.976Z,96987.12
2019-02-24T11:13:18.350Z,96979.56
2019-02-24T11:15:47.722Z,96974.03
2019-02-24T11:18:17.135Z,96959.94
2019-02-24T11:20:46.532Z,96964.39
2019-02-24T11:23:15.992Z,96952.98
2019-02-24T11:25:45.447Z,96964.89
2019-02-24T11:28:14.809Z,96964.41
2019-02-24T11:30:44.385Z,96955.94
2019-02-24T11:33:13.734Z,96951.11
2019-02-24T11:35:43.180Z,96948.86
2019-02-24T11:38:13.594Z,96953.30
2019-02-24T11:40:43.192Z,96949.58
2019-02-24T11:43:15.433Z,96934.08
2019-02-24T11:45:44.546Z,96948.81
2019-02-24T11:48:14.563Z,96935.19
2019-02-24T11:50:44.298Z,96939.70
2019-02-24T11:53:14.218Z,96933.64
2019-02-24T11:55:46.729Z,96928.03
2019-02-24T11:58:16.681Z,96921.84
2019-02-24T12:00:46.573Z,96905.28
2019-02-24T12:03:16.411Z,96905.28
2019-02-24T12:05:46.486Z,96908.27
2019-02-24T12:08:21.501Z,96903.97
2019-02-24T12:10:57.188Z,96911.81
2019-02-24T12:13:34.572Z,96907.84
2019-02-24T12:16:03.980Z,96900.77
2019-02-24T12:18:33.280Z,96906.91
2019-02-24T12:21:02.621Z,96894.72
2019-02-24T12:23:31.919Z,96892.92
2019-02-24T12:26:01.304Z,96895.53
2019-02-24T12:28:30.665Z,96898.03
2019-02-24T12:31:00.075Z,96899.88
2019-02-24T12:33:29.402Z,96894.61
2019-02-24T12:35:58.890Z,96891.42
2019-02-24T12:38:28.330Z,96896.25
2019-02-24T12:40:58.881Z,96895.73
2019-02-24T12:43:28.359Z,96912.45
2019-02-24T12:45:57.694Z,96894.81
2019-02-24T12:48:27.042Z,96897.57
2019-02-24T12:50:56.386Z,96896.69
2019-02-24T12:53:27.524Z,96889.97
2019-02-24T12:55:56.782Z,96897.93
2019-02-24T12:58:26.123Z,96894.13
2019-02-24T13:00:55.483Z,96888.12
2019-02-24T13:03:24.850Z,96889.91
2019-02-24T13:05:54.204Z,96888.61
2019-02-24T13:08:23.517Z,96891.41
2019-02-24T13:10:52.886Z,96884.11
2019-02-24T13:13:22.238Z,96893.00
2019-02-24T13:15:51.848Z,96897.63
2019-02-24T13:18:21.209Z,96896.89
2019-02-24T13:20:50.547Z,96891.81
2019-02-24T13:23:20.018Z,96889.77
2019-02-24T13:25:49.442Z,96891.52
2019-02-24T13:28:18.776Z,96894.34
2019-02-24T13:30:48.243Z,96880.79
2019-02-24T13:33:17.647Z,96886.24
2019-02-24T13:35:48.475Z,96889.13
2019-02-24T13:38:17.836Z,96885.94
2019-02-24T13:40:47.188Z,96883.58
2019-02-24T13:43:16.858Z,96890.28
2019-02-24T13:45:46.289Z,96882.42
2019-02-24T13:48:15.677Z,96885.52
2019-02-24T13:50:45.034Z,96885.47
2019-02-24T13:53:14.370Z,96887.27
2019-02-24T13:55:43.704Z,96885.36
2019-02-24T13:58:13.054Z,96879.98
2019-02-24T14:00:42.510Z,96883.06
2019-02-24T14:03:11.968Z,96890.70
2019-02-24T14:05:41.732Z,96889.83
2019-02-24T14:08:11.433Z,96889.75
2019-02-24T14:10:40.757Z,96886.95
2019-02-24T14:13:10.120Z,96887.96
2019-02-24T14:15:39.765Z,96886.37
2019-02-24T14:18:09.150Z,96885.36
2019-02-24T14:20:38.979Z,96874.34
2019-02-24T14:23:08.435Z,96879.17
2019-02-24T14:25:37.800Z,96877.38
2019-02-24T14:28:07.146Z,96874.30
2019-02-24T14:30:36.534Z,96876.19
2019-02-24T14:33:05.860Z,96886.86
2019-02-24T14:35:35.184Z,96885.53
2019-02-24T14:38:04.676Z,96883.84
2019-02-24T14:40:34.010Z,96888.12
2019-02-24T14:43:03.364Z,96889.08
2019-02-24T14:45:32.758Z,96885.77
2019-02-24T14:48:02.090Z,96880.64
2019-02-24T14:50:31.747Z,96889.28
2019-02-24T14:53:01.475Z,96687.30
2019-02-24T14:55:30.790Z,96881.52
2019-02-24T14:58:00.109Z,96881.94
2019-02-24T15:00:29.816Z,96881.66
2019-02-24T15:02:59.166Z,96882.98
2019-02-24T15:05:28.791Z,96877.19
2019-02-24T15:07:58.458Z,96872.73
2019-02-24T15:10:28.027Z,96874.12
2019-02-24T15:12:57.349Z,96876.11
2019-02-24T15:15:32.895Z,96873.92
2019-02-24T15:17:58.206Z,96875.11
2019-02-24T15:20:27.564Z,96876.67
2019-02-24T15:22:56.913Z,96873.75
2019-02-24T15:25:26.227Z,96874.80
2019-02-24T15:27:55.587Z,96878.73
2019-02-24T15:30:27.682Z,96880.97
2019-02-24T15:32:57.016Z,96881.07
2019-02-24T15:35:26.435Z,96886.55
2019-02-24T15:37:55.950Z,96873.94
2019-02-24T15:40:26.173Z,96882.78
2019-02-24T15:42:55.494Z,96880.72
2019-02-24T15:45:25.096Z,96880.78
2019-02-24T15:47:54.406Z,96873.58
2019-02-24T15:50:23.749Z,96875.44
2019-02-24T15:52:53.131Z,96880.21
2019-02-24T15:55:22.829Z,96878.70
2019-02-24T15:57:52.163Z,96889.00
2019-02-24T16:00:21.737Z,96890.23
2019-02-24T16:02:51.218Z,96888.76
2019-02-24T16:05:20.553Z,96886.18
2019-02-24T16:07:50.011Z,96891.87
2019-02-24T16:10:19.513Z,96887.00
2019-02-24T16:12:48.894Z,96890.05
2019-02-24T16:15:39.507Z,96882.22
2019-02-24T16:18:09.389Z,96890.55
2019-02-24T16:20:38.905Z,96889.78
2019-02-24T16:23:08.648Z,96889.27
2019-02-24T16:25:38.311Z,96897.93
2019-02-24T16:28:07.750Z,96901.38
2019-02-24T16:30:37.174Z,96894.38
2019-02-24T16:33:10.626Z,96902.50
2019-02-24T16:35:37.609Z,96903.53
2019-02-24T16:38:08.401Z,96907.59
2019-02-24T16:40:38.235Z,96909.42
2019-02-24T16:43:07.609Z,96903.55
2019-02-24T16:45:40.014Z,96909.20
2019-02-24T16:48:09.370Z,96909.22
2019-02-24T16:50:38.766Z,96913.98
2019-02-24T16:53:08.093Z,96918.55
2019-02-24T16:55:37.517Z,96912.47
2019-02-24T16:58:06.922Z,96920.47
2019-02-24T17:00:36.290Z,96927.08
2019-02-24T17:03:05.674Z,96922.31
2019-02-24T17:05:35.148Z,96927.27
2019-02-24T17:08:04.848Z,96920.47
2019-02-24T17:10:34.516Z,96919.26
2019-02-24T17:13:03.949Z,96907.81
2019-02-24T17:15:33.329Z,96916.51
2019-02-24T17:18:03.027Z,96919.47
2019-02-24T17:20:32.405Z,96917.32
2019-02-24T17:23:02.718Z,96914.39
2019-02-24T17:25:32.128Z,96911.47
2019-02-24T17:28:01.494Z,96910.75
2019-02-24T17:30:31.188Z,96908.83
2019-02-24T17:33:00.532Z,96906.68
2019-02-24T17:35:30.000Z,96905.59
2019-02-24T17:37:59.416Z,96907.51
2019-02-24T17:40:29.437Z,96907.89
2019-02-24T17:42:58.787Z,96912.47
2019-02-24T17:45:29.570Z,96911.37
2019-02-24T17:47:58.921Z,96909.73
2019-02-24T17:50:28.291Z,96909.64
2019-02-24T17:52:57.686Z,96916.13
2019-02-24T17:55:27.096Z,96912.66
2019-02-24T17:57:56.723Z,96920.47
2019-02-24T18:00:32.138Z,96925.96
2019-02-24T18:03:01.850Z,96926.07
2019-02-24T18:05:33.736Z,96930.21
2019-02-24T18:08:03.206Z,96927.97
2019-02-24T18:10:32.747Z,96930.21
2019-02-24T18:13:02.499Z,96928.68
2019-02-24T18:15:31.871Z,96931.84
2019-02-24T18:18:01.386Z,96942.97
2019-02-24T18:20:30.870Z,96942.97
2019-02-24T18:23:00.259Z,96944.71
2019-02-24T18:25:29.904Z,96938.73
2019-02-24T18:27:59.663Z,96939.94
2019-02-24T18:30:31.288Z,96941.25
2019-02-24T18:33:00.721Z,96933.84
2019-02-24T18:35:30.127Z,96935.48
2019-02-24T18:37:59.514Z,96935.58
2019-02-24T18:40:29.393Z,96932.03
2019-02-24T18:43:00.526Z,96819.39
2019-02-24T18:45:30.133Z,96938.72
2019-02-24T18:47:59.457Z,96937.92
2019-02-24T18:50:28.862Z,96940.23
2019-02-24T18:52:58.241Z,96936.28
2019-02-24T18:55:27.602Z,96942.36
2019-02-24T18:57:56.971Z,96939.53
2019-02-24T19:00:26.332Z,96942.70
2019-02-24T19:02:55.721Z,96942.78
2019-02-24T19:05:25.529Z,96941.78
2019-02-24T19:07:56.057Z,96945.02
2019-02-24T19:10:25.452Z,96947.23
2019-02-24T19:12:54.846Z,96946.72
2019-02-24T19:15:24.223Z,96944.30
2019-02-24T19:17:53.575Z,96958.39
2019-02-24T19:20:24.703Z,96948.27
2019-02-24T19:22:54.023Z,96946.25
2019-02-24T19:25:23.412Z,96949.07
2019-02-24T19:27:52.873Z,96950.10
2019-02-24T19:30:24.622Z,96951.59
2019-02-24T19:32:55.747Z,96948.07
2019-02-24T19:35:25.158Z,96946.64
2019-02-24T19:37:54.905Z,96957.38
2019-02-24T19:40:24.264Z,96951.72
2019-02-24T19:42:53.623Z,96955.67
2019-02-24T19:45:23.035Z,96954.14
2019-02-24T19:47:52.392Z,96950.28
2019-02-24T19:50:21.887Z,96939.34
2019-02-24T19:52:51.243Z,96940.96
2019-02-24T19:55:20.578Z,96943.59
2019-02-24T19:57:49.959Z,96935.08
2019-02-24T20:00:20.516Z,96936.50
2019-02-24T20:02:49.980Z,96934.89
2019-02-24T20:05:19.739Z,96933.25
2019-02-24T20:07:49.166Z,96934.45
2019-02-24T20:10:20.401Z,96929.80
2019-02-24T20:12:49.755Z,96937.92
2019-02-24T20:15:19.071Z,96934.58
2019-02-24T20:17:48.710Z,96727.73
2019-02-24T20:20:18.070Z,96933.74
2019-02-24T20:22:47.485Z,96937.30
2019-02-24T20:25:16.994Z,96935.28
2019-02-24T20:27:49.176Z,96946.53
2019-02-24T20:30:23.571Z,96943.36
2019-02-24T20:32:52.902Z,96943.69
2019-02-24T20:35:22.272Z,96945.92
2019-02-24T20:37:51.663Z,96946.81
2019-02-24T20:40:25.252Z,96942.86
2019-02-24T20:42:54.884Z,96941.55
2019-02-24T20:45:26.323Z,96938.41
2019-02-24T20:47:56.195Z,96936.09
2019-02-24T20:50:25.578Z,96936.78
2019-02-24T20:52:54.926Z,96940.55
2019-02-24T20:55:24.516Z,96943.47
2019-02-24T20:57:53.910Z,96945.61
2019-02-24T21:00:25.983Z,96940.73
2019-02-24T21:02:55.948Z,96934.14
2019-02-24T21:05:25.409Z,96932.11
2019-02-24T21:07:54.767Z,96929.37
2019-02-24T21:10:24.186Z,96932.71
2019-02-24T21:12:54.636Z,96930.08
2019-02-24T21:15:24.366Z,96939.73
2019-02-24T21:17:53.781Z,96933.80
2019-02-24T21:20:25.058Z,96925.58
2019-02-24T21:22:54.845Z,96932.06
2019-02-24T21:25:24.217Z,96927.23
2019-02-24T21:27:53.575Z,96928.38
2019-02-24T21:30:23.344Z,96612.68
2019-02-24T21:32:52.722Z,96923.60
2019-02-24T21:35:22.217Z,96920.86
2019-02-24T21:37:51.545Z,96921.14
2019-02-24T21:40:20.913Z,96919.32
2019-02-24T21:42:50.267Z,96924.09
2019-02-24T21:45:20.181Z,96918.01
2019-02-24T21:47:49.548Z,96927.45
2019-02-24T21:50:19.110Z,96923.50
2019-02-24T21:52:48.499Z,96917.62
2019-02-24T21:55:17.926Z,96921.67
2019-02-24T21:57:47.447Z,96925.48
2019-02-24T22:00:20.741Z,96920.11
2019-02-24T22:02:50.108Z,96925.03
2019-02-24T22:05:19.784Z,96927.05
2019-02-24T22:07:49.121Z,96928.05
2019-02-24T22:10:18.588Z,96933.80
2019-02-24T22:12:47.940Z,96934.61
2019-02-24T22:15:21.476Z,96928.03
2019-02-24T22:17:50.837Z,96930.05
2019-02-24T22:20:20.211Z,96929.67
2019-02-24T22:22:49.592Z,96929.25
2019-02-24T22:25:19.181Z,96930.88
2019-02-24T22:27:48.517Z,96936.13
2019-02-24T22:30:18.379Z,96928.90
2019-02-24T22:32:47.859Z,96929.61
2019-02-24T22:35:17.210Z,96929.11
2019-02-24T22:37:46.573Z,96930.70
2019-02-24T22:40:16.988Z,96937.64
2019-02-24T22:42:46.787Z,96937.23
2019-02-24T22:47:47.803Z,96938.95
2019-02-24T22:50:18.234Z,96938.47
2019-02-24T22:52:47.677Z,96948.31
2019-02-24T22:55:17.233Z,96951.67
2019-02-24T22:57:46.574Z,96950.66
2019-02-24T23:01:09.857Z,96941.02
2019-02-24T23:03:40.687Z,96952.78
2019-02-24T23:06:10.046Z,96948.10
2019-02-24T23:08:39.381Z,96948.55
2019-02-24T23:11:08.896Z,96955.28
2019-02-24T23:13:39.396Z,96947.11
2019-02-24T23:16:08.871Z,96955.24
2019-02-24T23:18:38.235Z,96951.67
2019-02-24T23:21:07.571Z,96953.93
2019-02-24T23:23:36.960Z,96946.42
2019-02-24T23:26:06.332Z,96947.98
2019-02-24T23:28:35.704Z,96940.52
2019-02-24T23:31:05.108Z,96929.52
2019-02-24T23:33:34.484Z,96934.52
2019-02-24T23:36:03.830Z,96933.21
2019-02-24T23:38:34.410Z,96931.33
2019-02-24T23:41:03.762Z,96932.23
2019-02-24T23:43:33.199Z,96939.04
2019-02-24T23:46:02.564Z,96942.35
2019-02-24T23:48:31.948Z,96939.89
2019-02-24T23:51:01.303Z,96932.52
2019-02-24T23:53:30.644Z,96939.67
2019-02-24T23:56:00.001Z,96942.13
2019-02-24T23:58:29.372Z,96943.50
